Time;durP1;ratioP1;P1;durP2;ratioP2;P2;SDS_P1;SDS_P2;PMS_P1;PMS_P2;Temp;Humidity;BMP_temperature;BMP_pressure;BME280_temperature;BME280_humidity;BME280_pressure;Samples;Min_cycle;Max_cycle;Signal;HPM_P1;HPM_P2
2024/03/19 00:02:23;;;;;;;;;;;7.60;99.90;;;;;;6641541;88;20128;-76
2024/03/19 00:12:24;;;;;;;;;;;7.60;99.90;;;;;;6628075;88;20062;-76
2024/03/19 00:22:24;;;;;;;;;;;7.60;99.90;;;;;;6626342;88;20121;-75
2024/03/19 00:32:26;;;;;;;;;;;7.60;99.90;;;;;;6625863;88;20193;-74
2024/03/19 00:42:27;;;;;;;;;;;7.90;99.90;;;;;;6622160;88;20487;-75
2024/03/19 00:52:28;;;;;;;;;;;8.20;99.90;;;;;;6628142;88;20077;-75
2024/03/19 01:02:28;;;;;;;;;;;8.40;99.90;;;;;;6622714;88;20084;-75
2024/03/19 01:12:29;;;;;;;;;;;8.40;99.90;;;;;;6639585;88;20061;-75
2024/03/19 01:22:29;;;;;;;;;;;8.40;99.90;;;;;;6621810;88;20067;-75
2024/03/19 01:32:29;;;;;;;;;;;8.10;99.90;;;;;;6627188;88;20133;-75
2024/03/19 01:42:30;;;;;;;;;;;7.90;99.90;;;;;;6625436;88;20069;-75
2024/03/19 01:52:31;;;;;;;;;;;7.70;99.90;;;;;;6643170;88;20078;-75
2024/03/19 02:02:34;;;;;;;;;;;7.60;99.90;;;;;;6636204;88;20070;-75
2024/03/19 02:12:34;;;;;;;;;;;7.50;99.90;;;;;;6622979;88;20059;-75
2024/03/19 02:22:35;;;;;;;;;;;7.40;99.90;;;;;;6624650;88;20066;-75
2024/03/19 02:32:35;;;;;;;;;;;7.20;99.90;;;;;;6625126;88;20181;-75
2024/03/19 02:42:36;;;;;;;;;;;7.10;99.90;;;;;;6625018;88;20143;-75
2024/03/19 02:52:36;;;;;;;;;;;7.00;99.90;;;;;;6625612;88;20173;-75
2024/03/19 03:02:37;;;;;;;;;;;7.10;99.90;;;;;;6627158;88;20538;-75
2024/03/19 03:12:37;;;;;;;;;;;7.00;99.90;;;;;;6626928;88;20092;-75
2024/03/19 03:22:38;;;;;;;;;;;7.00;99.90;;;;;;6627566;88;20076;-75
2024/03/19 03:32:39;;;;;;;;;;;7.00;99.90;;;;;;6628659;88;20178;-75
2024/03/19 03:42:43;;;;;;;;;;;7.00;99.90;;;;;;6636855;88;20058;-75
2024/03/19 03:52:44;;;;;;;;;;;7.10;99.90;;;;;;6623087;88;20078;-76
2024/03/19 04:02:45;;;;;;;;;;;7.40;99.90;;;;;;6629309;88;20800;-76
2024/03/19 04:12:48;;;;;;;;;;;7.50;99.90;;;;;;6627465;88;20131;-76
2024/03/19 04:22:48;;;;;;;;;;;7.50;99.90;;;;;;6628921;88;20079;-76
2024/03/19 04:32:49;;;;;;;;;;;7.50;99.90;;;;;;6635115;88;20082;-75
2024/03/19 04:42:49;;;;;;;;;;;7.40;99.90;;;;;;6636119;88;20093;-76
2024/03/19 04:52:50;;;;;;;;;;;7.20;99.90;;;;;;6629018;88;20650;-75
2024/03/19 05:02:50;;;;;;;;;;;7.20;99.90;;;;;;6636249;88;20114;-76
2024/03/19 05:12:51;;;;;;;;;;;7.20;99.90;;;;;;6622560;88;20577;-76
2024/03/19 05:22:51;;;;;;;;;;;7.30;99.90;;;;;;6635830;88;20101;-76
2024/03/19 05:32:52;;;;;;;;;;;7.30;99.90;;;;;;6637256;77;20180;-78
2024/03/19 05:42:52;;;;;;;;;;;7.40;99.90;;;;;;6652454;89;20105;-78
2024/03/19 05:52:54;;;;;;;;;;;7.40;99.90;;;;;;6646772;89;20086;-78
2024/03/19 06:02:54;;;;;;;;;;;7.40;99.90;;;;;;6640514;89;20133;-78
2024/03/19 06:12:54;;;;;;;;;;;7.60;99.90;;;;;;6658624;88;20658;-78
2024/03/19 06:22:55;;;;;;;;;;;7.60;99.90;;;;;;6638264;89;20059;-78
2024/03/19 06:32:56;;;;;;;;;;;7.80;99.90;;;;;;6653908;88;20509;-77
2024/03/19 06:42:57;;;;;;;;;;;7.80;99.90;;;;;;6655038;88;20085;-77
2024/03/19 06:52:57;;;;;;;;;;;7.80;99.90;;;;;;6697896;88;20047;-79
2024/03/19 07:02:58;;;;;;;;;;;7.90;99.90;;;;;;6671752;88;20121;-79
2024/03/19 07:12:58;;;;;;;;;;;8.00;99.90;;;;;;6679652;88;20076;-78
2024/03/19 07:22:59;;;;;;;;;;;8.20;99.90;;;;;;6679151;88;20589;-77
2024/03/19 07:33:01;;;;;;;;;;;8.50;99.90;;;;;;6669011;88;20593;-77
2024/03/19 07:43:03;;;;;;;;;;;8.90;99.90;;;;;;6689414;88;20080;-77
2024/03/19 07:53:04;;;;;;;;;;;9.20;99.90;;;;;;6658373;88;20541;-78
2024/03/19 08:03:04;;;;;;;;;;;9.50;99.90;;;;;;6717599;88;20054;-78
2024/03/19 08:13:05;;;;;;;;;;;9.80;99.90;;;;;;6642256;88;20069;-78
2024/03/19 08:23:06;;;;;;;;;;;9.80;99.90;;;;;;6653824;88;20508;-78
2024/03/19 08:33:06;;;;;;;;;;;10.10;99.90;;;;;;6646229;88;20095;-78
2024/03/19 08:43:07;;;;;;;;;;;10.50;99.90;;;;;;6649719;88;20221;-78
2024/03/19 08:53:07;;;;;;;;;;;10.50;99.90;;;;;;6677417;88;20089;-78
2024/03/19 09:03:08;;;;;;;;;;;10.60;99.90;;;;;;6653152;88;20137;-78
2024/03/19 09:13:09;;;;;;;;;;;10.80;99.90;;;;;;6651334;88;20860;-78
2024/03/19 09:23:09;;;;;;;;;;;11.40;99.90;;;;;;6642738;88;20516;-78
2024/03/19 09:33:10;;;;;;;;;;;11.80;99.90;;;;;;6651596;88;20492;-78
2024/03/19 09:43:18;;;;;;;;;;;12.00;99.90;;;;;;6693160;88;20227;-78
2024/03/19 09:53:19;;;;;;;;;;;12.20;99.90;;;;;;6654988;88;20116;-79
2024/03/19 10:03:20;;;;;;;;;;;13.20;99.90;;;;;;6661313;88;20080;-78
2024/03/19 10:13:20;;;;;;;;;;;14.10;99.90;;;;;;6687080;88;20098;-79
2024/03/19 10:23:22;;;;;;;;;;;15.20;99.90;;;;;;6654492;88;20192;-79
2024/03/19 10:33:23;;;;;;;;;;;14.70;99.90;;;;;;6678667;88;20087;-79
2024/03/19 10:43:25;;;;;;;;;;;15.40;99.90;;;;;;6660828;88;20073;-79
2024/03/19 10:53:28;;;;;;;;;;;15.70;99.90;;;;;;6674801;88;20057;-80
2024/03/19 11:03:30;;;;;;;;;;;16.20;99.90;;;;;;6679231;88;20064;-79
2024/03/19 11:13:33;;;;;;;;;;;17.00;99.90;;;;;;6686534;88;20124;-79
2024/03/19 11:23:34;;;;;;;;;;;17.60;99.90;;;;;;6682071;88;20078;-78
2024/03/19 11:33:37;;;;;;;;;;;18.50;99.90;;;;;;6654551;77;20111;-78
2024/03/19 11:43:37;;;;;;;;;;;18.30;99.90;;;;;;6622363;88;20094;-77
2024/03/19 11:53:37;;;;;;;;;;;18.70;99.90;;;;;;6626754;88;20351;-77
2024/03/19 12:03:38;;;;;;;;;;;19.30;99.90;;;;;;6628704;88;20210;-77
2024/03/19 12:13:39;;;;;;;;;;;18.10;99.90;;;;;;6637430;88;20100;-77
2024/03/19 12:23:39;;;;;;;;;;;18.80;99.90;;;;;;6630339;88;20132;-77
2024/03/19 12:33:50;;;;;;;;;;;19.20;99.90;;;;;;6628418;88;20434;-77
2024/03/19 12:43:51;;;;;;;;;;;20.10;99.90;;;;;;6624625;88;20552;-77
2024/03/19 12:53:52;;;;;;;;;;;20.20;99.80;;;;;;6646387;88;20062;-77
2024/03/19 13:03:52;;;;;;;;;;;19.90;99.90;;;;;;6630134;88;20068;-76
2024/03/19 13:13:53;;;;;;;;;;;20.50;98.60;;;;;;6636959;88;20058;-77
2024/03/19 13:23:53;;;;;;;;;;;19.20;98.90;;;;;;6636221;88;20419;-77
2024/03/19 13:33:54;;;;;;;;;;;19.60;99.10;;;;;;6641584;88;20092;-77
2024/03/19 13:43:55;;;;;;;;;;;21.00;98.50;;;;;;6632070;88;20087;-76
2024/03/19 13:53:58;;;;;;;;;;;20.20;98.60;;;;;;6627383;88;20201;-77
2024/03/19 14:03:58;;;;;;;;;;;20.80;97.30;;;;;;6629357;88;20125;-77
2024/03/19 14:14:00;;;;;;;;;;;20.50;98.10;;;;;;6625608;88;20265;-77
2024/03/19 14:24:00;;;;;;;;;;;21.70;97.30;;;;;;6637328;88;20094;-78
2024/03/19 14:34:00;;;;;;;;;;;20.00;97.70;;;;;;6629438;88;20070;-77
2024/03/19 14:44:01;;;;;;;;;;;18.80;99.30;;;;;;6631341;88;20482;-78
2024/03/19 14:54:02;;;;;;;;;;;18.80;99.20;;;;;;6630939;88;20055;-76
2024/03/19 15:04:03;;;;;;;;;;;19.60;98.70;;;;;;6637490;88;20148;-77
2024/03/19 15:14:05;;;;;;;;;;;20.20;97.60;;;;;;6639888;88;20068;-76
2024/03/19 15:24:06;;;;;;;;;;;19.80;98.70;;;;;;6633772;88;20087;-76
2024/03/19 15:34:07;;;;;;;;;;;19.90;98.30;;;;;;6633985;89;20205;-77
2024/03/19 15:44:14;;;;;;;;;;;19.30;99.10;;;;;;6633213;88;20129;-76
2024/03/19 15:54:14;;;;;;;;;;;18.90;99.20;;;;;;6626704;88;20074;-76
2024/03/19 16:04:15;;;;;;;;;;;19.00;98.80;;;;;;6628028;88;20138;-76
2024/03/19 16:14:16;;;;;;;;;;;18.60;99.60;;;;;;6630262;88;20097;-77
2024/03/19 16:24:17;;;;;;;;;;;18.10;99.90;;;;;;6638190;88;20089;-78
2024/03/19 16:34:17;;;;;;;;;;;17.90;99.90;;;;;;6628995;88;20062;-76
2024/03/19 16:44:18;;;;;;;;;;;17.60;99.90;;;;;;6639687;88;20069;-78
2024/03/19 16:54:18;;;;;;;;;;;17.40;99.90;;;;;;6632956;88;20062;-77
2024/03/19 17:04:19;;;;;;;;;;;17.00;99.90;;;;;;6630991;88;20580;-76
2024/03/19 17:14:20;;;;;;;;;;;16.90;99.90;;;;;;6626716;88;20111;-76
2024/03/19 17:24:21;;;;;;;;;;;16.70;99.90;;;;;;6633965;88;20606;-75
2024/03/19 17:34:22;;;;;;;;;;;16.50;99.90;;;;;;6628361;88;20085;-76
2024/03/19 17:54:26;;;;;;;;;;;16.10;99.90;;;;;;6675087;88;20099;-77
2024/03/19 18:04:26;;;;;;;;;;;16.00;99.90;;;;;;6654566;88;20507;-77
2024/03/19 18:14:27;;;;;;;;;;;15.80;99.90;;;;;;6660833;88;20173;-79
2024/03/19 18:24:27;;;;;;;;;;;15.50;99.90;;;;;;6653995;88;20062;-79
2024/03/19 18:34:29;;;;;;;;;;;15.30;99.90;;;;;;6641920;88;20220;-78
2024/03/19 18:44:29;;;;;;;;;;;15.20;99.90;;;;;;6638656;88;20094;-78
2024/03/19 18:54:30;;;;;;;;;;;15.00;99.90;;;;;;6638075;88;20054;-78
2024/03/19 19:04:31;;;;;;;;;;;14.70;99.90;;;;;;6638471;88;20146;-78
2024/03/19 19:14:32;;;;;;;;;;;14.50;99.90;;;;;;6642772;88;20075;-78
2024/03/19 19:24:32;;;;;;;;;;;14.30;99.90;;;;;;6648445;88;20100;-78
2024/03/19 19:34:34;;;;;;;;;;;14.20;99.90;;;;;;6645999;88;20062;-79
2024/03/19 19:44:35;;;;;;;;;;;14.10;99.90;;;;;;6634355;89;20162;-77
2024/03/19 19:54:35;;;;;;;;;;;14.00;99.90;;;;;;6671210;88;20145;-79
2024/03/19 20:04:36;;;;;;;;;;;13.80;99.90;;;;;;6659290;88;21110;-78
2024/03/19 20:14:36;;;;;;;;;;;13.60;99.90;;;;;;6644235;88;20536;-79
2024/03/19 20:24:37;;;;;;;;;;;13.50;99.90;;;;;;6677059;88;20591;-83
2024/03/19 20:34:37;;;;;;;;;;;13.40;99.90;;;;;;6675915;88;20100;-79
2024/03/19 20:44:44;;;;;;;;;;;13.30;99.90;;;;;;6659528;88;20549;-79
2024/03/19 20:54:44;;;;;;;;;;;13.20;99.90;;;;;;6662203;88;20060;-78
2024/03/19 21:04:45;;;;;;;;;;;13.00;99.90;;;;;;6680333;88;20063;-79
2024/03/19 21:14:45;;;;;;;;;;;12.80;99.90;;;;;;6631449;88;20053;-78
2024/03/19 21:24:46;;;;;;;;;;;12.90;99.90;;;;;;6634964;89;20607;-78
2024/03/19 21:34:46;;;;;;;;;;;12.80;99.90;;;;;;6661138;88;20219;-79
2024/03/19 21:44:47;;;;;;;;;;;12.70;99.90;;;;;;6650820;88;20191;-78
2024/03/19 21:54:47;;;;;;;;;;;12.70;99.90;;;;;;6671270;88;20143;-78
2024/03/19 22:04:48;;;;;;;;;;;12.60;99.90;;;;;;6650631;88;20058;-78
2024/03/19 22:14:48;;;;;;;;;;;12.50;99.90;;;;;;6639144;88;20607;-76
2024/03/19 22:24:50;;;;;;;;;;;12.50;99.90;;;;;;6652445;88;20077;-77
2024/03/19 22:34:50;;;;;;;;;;;12.40;99.90;;;;;;6633563;88;20129;-77
2024/03/19 22:44:51;;;;;;;;;;;12.40;99.90;;;;;;6632938;88;20054;-77
2024/03/19 22:54:51;;;;;;;;;;;12.30;99.90;;;;;;6631051;88;20066;-78
2024/03/19 23:04:53;;;;;;;;;;;12.30;99.90;;;;;;6637304;88;20113;-77
2024/03/19 23:14:54;;;;;;;;;;;12.30;99.90;;;;;;6660751;88;20062;-77
2024/03/19 23:24:54;;;;;;;;;;;12.20;99.90;;;;;;6652902;88;20057;-76
2024/03/19 23:34:54;;;;;;;;;;;12.00;99.90;;;;;;6632136;88;20077;-77
2024/03/19 23:44:55;;;;;;;;;;;12.00;99.90;;;;;;6652899;77;20070;-77
2024/03/19 23:54:56;;;;;;;;;;;12.10;99.90;;;;;;6622672;88;20160;-77
